NCAR-RAP Real-Time Weather Data

Output produced by METARs form (01 December 2020  18:13 UTC)
found at http://weather.rap.ucar.edu/surface/
 
KSPI 011652Z 28008KT 10SM CLR 00/M07 A3017 RMK AO2 SLP222 T00001067
KSPI 011552Z 31006KT 10SM CLR M02/M06 A3016 RMK AO2 SLP219 T10171061
KSPI 011452Z 28006KT 10SM CLR M04/M07 A3015 RMK AO2 SLP217 I3000 T10391067 53017
KSPI 011352Z 29006KT 10SM CLR M06/M07 A3014 RMK AO2 SLP213 T10611072
KSPI 011252Z 28006KT 10SM CLR M07/M08 A3011 RMK AO2 SLP205 I1000 T10721083
KSPI 011152Z AUTO 00000KT 10SM CLR M08/M08 A3010 RMK AO2 SLP201 T10781083 11044 21089 53001
KSPI 011052Z AUTO 24003KT 10SM CLR M08/M08 A3009 RMK AO2 SLP197 T10781083
KSPI 010952Z AUTO 30005KT 10SM CLR M07/M08 A3009 RMK AO2 SLP197 T10671083
KSPI 010852Z AUTO 29006KT 10SM CLR M06/M08 A3010 RMK AO2 SLP198 T10561078 53004
KSPI 010752Z AUTO 29007KT 10SM CLR M04/M07 A3009 RMK AO2 SLP195 T10441072
KSPI 010652Z AUTO 28006KT 10SM CLR M05/M07 A3008 RMK AO2 SLP191 T10501072
KSPI 010552Z AUTO 28005KT 10SM CLR M04/M08 A3008 RMK AO2 SLP194 T10441078 11011 21044 400221044 58005
KSPI 010452Z AUTO 30006KT 10SM CLR M03/M08 A3009 RMK AO2 SLP196 T10281083
KSPI 010352Z AUTO 32007KT 10SM CLR M03/M08 A3010 RMK AO2 SLP200 T10331083
KSPI 010252Z 31009KT 10SM OVC044 M02/M08 A3010 RMK AO2 SLP200 T10221083 50001
KSPI 010152Z 31009KT 10SM OVC038 M01/M08 A3011 RMK AO2 SLP201 T10111078